| time (UTC) | temp F | wind direction | speed MPH | gust MPH | rain 1hr in | rain 24hr in | rain mn in | humidity % | barometer mb |
| 20260504150344 | 73 | 278 | 6.0 | 8.0 | 0.00 | 0.00 | 0.00 | 39 | 1001.0 |
| 20260504141318 | 66 | 342 | 2.0 | 7.0 | 0.00 | 0.00 | 0.00 | 58 | 1001.4 |
| 20260504140824 | 64 | 321 | 0.0 | 0.0 | 0.00 | 0.00 | 0.00 | 61 | 1001.3 |
| 20260504140330 | 63 | 76 | 0.0 | 0.0 | 0.00 | 0.00 | 0.00 | 63 | 1001.1 |
| 20260504130814 | 50 | 82 | 0.0 | 0.0 | 0.00 | 0.00 | 0.00 | 82 | 1001.5 |
| 20260504130338 | 49 | 83 | 0.0 | 0.0 | 0.00 | 0.00 | 0.00 | 84 | 1001.5 |
| 20260504110315 | 42 | 295 | 0.0 | 0.0 | 0.00 | 0.00 | 0.00 | 90 | 1001.7 |
| 20260504100332 | 43 | 295 | 0.0 | 0.0 | 0.00 | 0.00 | 0.00 | 90 | 1001.8 |
| 20260504081825 | 45 | 193 | 0.0 | 0.0 | 0.00 | 0.00 | 0.00 | 86 | 1002.4 |
| 20260504081313 | 45 | 193 | 0.0 | 0.0 | 0.00 | 0.00 | 0.00 | 86 | 1002.5 |
| 20260504080820 | 45 | 193 | 0.0 | 0.0 | 0.00 | 0.00 | 0.00 | 87 | 1002.5 |
| 20260504080326 | 46 | 193 | 0.0 | 0.0 | 0.00 | 0.00 | 0.00 | 87 | 1002.5 |
| 20260504070339 | 47 | 193 | 0.0 | 0.0 | 0.00 | 0.00 | 0.00 | 85 | 1002.8 |
| 20260504050339 | 50 | 193 | 0.0 | 0.0 | 0.00 | 0.00 | 0.00 | 80 | 1004.5 |
| 20260504045830 | 50 | 193 | 0.0 | 0.0 | 0.00 | 0.00 | 0.00 | 79 | 1004.7 |
| 20260504045350 | 50 | 193 | 0.0 | 0.0 | 0.00 | 0.00 | 0.00 | 77 | 1004.7 |
| 20260504044824 | 50 | 193 | 0.0 | 0.0 | 0.00 | 0.00 | 0.00 | 74 | 1004.8 |
| 20260504044343 | 51 | 193 | 0.0 | 0.0 | 0.00 | 0.00 | 0.00 | 73 | 1004.8 |
| 20260504043834 | 51 | 193 | 0.0 | 0.0 | 0.00 | 0.00 | 0.00 | 72 | 1004.8 |
| 20260504043354 | 51 | 193 | 0.0 | 0.0 | 0.00 | 0.00 | 0.00 | 73 | 1004.9 |
| 20260504042849 | 51 | 193 | 0.0 | 0.0 | 0.00 | 0.00 | 0.00 | 74 | 1005.0 |
| 20260504042353 | 51 | 193 | 0.0 | 0.0 | 0.00 | 0.00 | 0.00 | 74 | 1004.9 |
| 20260504041818 | 52 | 193 | 0.0 | 0.0 | 0.00 | 0.00 | 0.00 | 73 | 1004.9 |
| 20260504041327 | 52 | 193 | 0.0 | 0.0 | 0.00 | 0.00 | 0.00 | 73 | 1005.0 |
| 20260504040814 | 52 | 193 | 0.0 | 0.0 | 0.00 | 0.00 | 0.00 | 74 | 1005.0 |
| 20260504040320 | 52 | 193 | 0.0 | 0.0 | 0.00 | 0.00 | 0.00 | 74 | 1005.2 |
| 20260504035826 | 53 | 193 | 0.0 | 0.0 | 0.00 | 0.00 | 0.00 | 74 | 1005.2 |
| 20260504035315 | 53 | 193 | 0.0 | 0.0 | 0.00 | 0.00 | 0.00 | 75 | 1005.3 |
| 20260504034819 | 53 | 193 | 0.0 | 0.0 | 0.00 | 0.00 | 0.00 | 74 | 1005.2 |
| 20260504034330 | 54 | 193 | 0.0 | 0.0 | 0.00 | 0.00 | 0.00 | 74 | 1005.3 |
| 20260504033832 | 54 | 193 | 0.0 | 0.0 | 0.00 | 0.00 | 0.00 | 71 | 1005.3 |
| 20260504033339 | 54 | 193 | 0.0 | 0.0 | 0.00 | 0.00 | 0.00 | 67 | 1005.3 |
| 20260504032820 | 54 | 193 | 0.0 | 0.0 | 0.00 | 0.00 | 0.00 | 65 | 1005.3 |
| 20260504032356 | 55 | 193 | 0.0 | 0.0 | 0.00 | 0.00 | 0.00 | 66 | 1005.3 |
| 20260504031823 | 55 | 193 | 0.0 | 0.0 | 0.00 | 0.00 | 0.00 | 65 | 1005.3 |
| 20260504031334 | 56 | 193 | 0.0 | 0.0 | 0.00 | 0.00 | 0.00 | 64 | 1005.3 |
| 20260504030813 | 56 | 193 | 0.0 | 0.0 | 0.00 | 0.00 | 0.00 | 61 | 1005.3 |
| 20260504030319 | 57 | 193 | 0.0 | 0.0 | 0.00 | 0.00 | 0.00 | 60 | 1005.3 |
| 20260504025825 | 57 | 193 | 0.0 | 0.0 | 0.00 | 0.00 | 0.00 | 60 | 1005.3 |
| 20260504025325 | 58 | 193 | 0.0 | 0.0 | 0.00 | 0.00 | 0.00 | 60 | 1005.2 |
| 20260504024830 | 58 | 193 | 0.0 | 0.0 | 0.00 | 0.00 | 0.00 | 60 | 1005.3 |
| 20260504024319 | 59 | 193 | 0.0 | 0.0 | 0.00 | 0.00 | 0.00 | 59 | 1005.3 |
| 20260504023826 | 59 | 193 | 0.0 | 0.0 | 0.00 | 0.00 | 0.00 | 59 | 1005.3 |
| 20260504023314 | 59 | 193 | 0.0 | 0.0 | 0.00 | 0.00 | 0.00 | 58 | 1005.3 |
| 20260504022820 | 60 | 193 | 0.0 | 0.0 | 0.00 | 0.00 | 0.00 | 58 | 1005.4 |
| 20260504022328 | 60 | 193 | 0.0 | 0.0 | 0.00 | 0.00 | 0.00 | 55 | 1005.4 |
| 20260504021814 | 61 | 193 | 0.0 | 0.0 | 0.00 | 0.00 | 0.00 | 54 | 1005.4 |
| 20260504021322 | 61 | 193 | 0.0 | 0.0 | 0.00 | 0.00 | 0.00 | 54 | 1005.5 |
| 20260504020829 | 62 | 193 | 0.0 | 0.0 | 0.00 | 0.00 | 0.00 | 52 | 1005.5 |
| 20260504020317 | 63 | 193 | 0.0 | 0.0 | 0.00 | 0.00 | 0.00 | 51 | 1005.5 |
| 20260504015824 | 63 | 193 | 0.0 | 0.0 | 0.00 | 0.00 | 0.00 | 50 | 1005.6 |
| 20260504015333 | 64 | 193 | 0.0 | 0.0 | 0.00 | 0.00 | 0.00 | 50 | 1005.6 |
| 20260504014819 | 65 | 193 | 0.0 | 0.0 | 0.00 | 0.00 | 0.00 | 49 | 1005.6 |
| 20260504014329 | 65 | 193 | 0.0 | 0.0 | 0.00 | 0.00 | 0.00 | 48 | 1005.7 |
| 20260504013815 | 66 | 193 | 0.0 | 2.0 | 0.00 | 0.00 | 0.00 | 48 | 1005.7 |
| 20260504013325 | 67 | 193 | 0.0 | 4.0 | 0.00 | 0.00 | 0.00 | 47 | 1005.7 |
| 20260504012812 | 67 | 193 | 2.0 | 4.0 | 0.00 | 0.00 | 0.00 | 43 | 1005.8 |
| 20260504012321 | 68 | 174 | 2.0 | 3.0 | 0.00 | 0.00 | 0.00 | 42 | 1006.0 |
| 20260504011826 | 68 | 193 | 2.0 | 4.0 | 0.00 | 0.00 | 0.00 | 41 | 1006.1 |
| 20260504011332 | 69 | 201 | 2.0 | 4.0 | 0.00 | 0.00 | 0.00 | 40 | 1006.1 |
| 20260504010815 | 69 | 187 | 1.0 | 3.0 | 0.00 | 0.00 | 0.00 | 40 | 1006.1 |
| 20260504010317 | 70 | 238 | 1.0 | 4.0 | 0.00 | 0.00 | 0.00 | 39 | 1006.2 |
| 20260504005822 | 70 | 238 | 0.0 | 4.0 | 0.00 | 0.00 | 0.00 | 37 | 1006.3 |
| 20260504005338 | 71 | 220 | 1.0 | 3.0 | 0.00 | 0.00 | 0.00 | 37 | 1006.3 |
| 20260504004826 | 71 | 241 | 2.0 | 6.0 | 0.00 | 0.00 | 0.00 | 36 | 1006.4 |
| 20260504004314 | 71 | 213 | 3.0 | 6.0 | 0.00 | 0.00 | 0.00 | 36 | 1006.4 |
| 20260504003820 | 71 | 241 | 2.0 | 6.0 | 0.00 | 0.00 | 0.00 | 36 | 1006.4 |
| 20260504003328 | 72 | 231 | 2.0 | 5.0 | 0.00 | 0.00 | 0.00 | 37 | 1006.5 |
| 20260504002834 | 72 | 222 | 3.0 | 5.0 | 0.00 | 0.00 | 0.00 | 36 | 1006.5 |
| 20260504002341 | 72 | 271 | 0.0 | 3.0 | 0.00 | 0.00 | 0.00 | 36 | 1006.6 |
| 20260504001847 | 72 | 193 | 2.0 | 3.0 | 0.00 | 0.00 | 0.00 | 36 | 1006.6 |
| 20260504001353 | 72 | 246 | 0.0 | 0.0 | 0.00 | 0.00 | 0.00 | 34 | 1006.6 |
| 20260504000837 | 72 | 246 | 0.0 | 3.0 | 0.00 | 0.00 | 0.00 | 35 | 1006.7 |
| 20260504000343 | 72 | 246 | 0.0 | 3.0 | 0.00 | 0.00 | 0.00 | 34 | 1006.7 |
| 20260503235846 | 72 | 217 | 2.0 | 4.0 | 0.00 | 0.00 | 0.00 | 33 | 1006.8 |
| 20260503235359 | 72 | 191 | 2.0 | 5.0 | 0.00 | 0.00 | 0.00 | 35 | 1006.8 |
| 20260503234851 | 73 | 181 | 2.0 | 5.0 | 0.00 | 0.00 | 0.00 | 34 | 1006.9 |
| 20260503234339 | 73 | 237 | 2.0 | 5.0 | 0.00 | 0.00 | 0.00 | 36 | 1007.0 |
| 20260503233844 | 73 | 275 | 1.0 | 3.0 | 0.00 | 0.00 | 0.00 | 33 | 1007.0 |
| 20260503233340 | 73 | 225 | 0.0 | 5.0 | 0.00 | 0.00 | 0.00 | 33 | 1007.1 |
| 20260503232826 | 73 | 225 | 1.0 | 5.0 | 0.00 | 0.00 | 0.00 | 33 | 1007.1 |
| 20260503232315 | 73 | 229 | 0.0 | 3.0 | 0.00 | 0.00 | 0.00 | 34 | 1007.2 |
| 20260503231821 | 73 | 178 | 0.0 | 1.0 | 0.00 | 0.00 | 0.00 | 34 | 1007.2 |
| 20260503231331 | 73 | 276 | 0.0 | 2.0 | 0.00 | 0.00 | 0.00 | 32 | 1007.3 |
| 20260503230818 | 73 | 317 | 0.0 | 3.0 | 0.00 | 0.00 | 0.00 | 32 | 1007.2 |
| 20260503230326 | 73 | 263 | 1.0 | 3.0 | 0.00 | 0.00 | 0.00 | 34 | 1007.3 |
| 20260503225812 | 73 | 196 | 0.0 | 3.0 | 0.00 | 0.00 | 0.00 | 33 | 1007.3 |
| 20260503225321 | 73 | 360 | 0.0 | 4.0 | 0.00 | 0.00 | 0.00 | 32 | 1007.3 |
| 20260503224827 | 73 | 300 | 2.0 | 4.0 | 0.00 | 0.00 | 0.00 | 33 | 1007.4 |
| 20260503224316 | 73 | 250 | 0.0 | 4.0 | 0.00 | 0.00 | 0.00 | 32 | 1007.3 |
| 20260503223822 | 74 | 273 | 2.0 | 4.0 | 0.00 | 0.00 | 0.00 | 34 | 1007.4 |
| 20260503223331 | 74 | 264 | 2.0 | 4.0 | 0.00 | 0.00 | 0.00 | 33 | 1007.3 |
| 20260503222816 | 74 | 292 | 2.0 | 4.0 | 0.00 | 0.00 | 0.00 | 32 | 1007.3 |
| 20260503222324 | 74 | 273 | 0.0 | 3.0 | 0.00 | 0.00 | 0.00 | 32 | 1007.3 |
| 20260503221830 | 74 | 45 | 0.0 | 5.0 | 0.00 | 0.00 | 0.00 | 33 | 1007.3 |
| 20260503221319 | 74 | 284 | 1.0 | 11.0 | 0.00 | 0.00 | 0.00 | 31 | 1007.4 |
| 20260503220825 | 75 | 288 | 2.0 | 11.0 | 0.00 | 0.00 | 0.00 | 33 | 1007.4 |
| 20260503220333 | 76 | 226 | 3.0 | 5.0 | 0.00 | 0.00 | 0.00 | 31 | 1007.3 |
| 20260503215820 | 76 | 216 | 2.0 | 4.0 | 0.00 | 0.00 | 0.00 | 30 | 1007.4 |
| 20260503215328 | 76 | 304 | 1.0 | 5.0 | 0.00 | 0.00 | 0.00 | 31 | 1007.4 |
| 20260503214833 | 76 | 286 | 1.0 | 6.0 | 0.00 | 0.00 | 0.00 | 30 | 1007.5 |
| 20260503214320 | 77 | 234 | 2.0 | 6.0 | 0.00 | 0.00 | 0.00 | 29 | 1007.6 |
| 20260503213826 | 78 | 286 | 0.0 | 6.0 | 0.00 | 0.00 | 0.00 | 29 | 1007.6 |
| 20260503213315 | 78 | 281 | 2.0 | 6.0 | 0.00 | 0.00 | 0.00 | 28 | 1007.8 |
| 20260503212822 | 79 | 271 | 0.0 | 3.0 | 0.00 | 0.00 | 0.00 | 29 | 1007.9 |
| 20260503212327 | 78 | 323 | 1.0 | 4.0 | 0.00 | 0.00 | 0.00 | 29 | 1007.9 |
| 20260503211817 | 77 | 11 | 2.0 | 4.0 | 0.00 | 0.00 | 0.00 | 31 | 1007.9 |
| 20260503211322 | 77 | 71 | 1.0 | 6.0 | 0.00 | 0.00 | 0.00 | 30 | 1008.0 |
| 20260503210828 | 76 | 260 | 2.0 | 6.0 | 0.00 | 0.00 | 0.00 | 31 | 1008.1 |
| 20260503210334 | 75 | 173 | 0.0 | 5.0 | 0.00 | 0.00 | 0.00 | 32 | 1008.2 |
| 20260503205820 | 76 | 198 | 3.0 | 8.0 | 0.00 | 0.00 | 0.00 | 30 | 1008.2 |
| 20260503205329 | 77 | 188 | 3.0 | 8.0 | 0.00 | 0.00 | 0.00 | 30 | 1008.3 |
| 20260503204832 | 78 | 233 | 4.0 | 8.0 | 0.00 | 0.00 | 0.00 | 30 | 1008.4 |
| 20260503204320 | 79 | 303 | 0.0 | 3.0 | 0.00 | 0.00 | 0.00 | 28 | 1008.5 |
| 20260503203825 | 79 | 275 | 1.0 | 3.0 | 0.00 | 0.00 | 0.00 | 29 | 1008.5 |
| 20260503203315 | 78 | 32 | 0.0 | 5.0 | 0.00 | 0.00 | 0.00 | 27 | 1008.6 |
| 20260503202821 | 78 | 69 | 2.0 | 5.0 | 0.00 | 0.00 | 0.00 | 31 | 1008.8 |
| 20260503202329 | 78 | 323 | 1.0 | 5.0 | 0.00 | 0.00 | 0.00 | 30 | 1008.8 |
| 20260503201815 | 77 | 20 | 2.0 | 5.0 | 0.00 | 0.00 | 0.00 | 30 | 1008.9 |
| 20260503201325 | 77 | 269 | 1.0 | 2.0 | 0.00 | 0.00 | 0.00 | 28 | 1009.0 |
| 20260503200830 | 77 | 163 | 1.0 | 3.0 | 0.00 | 0.00 | 0.00 | 28 | 1009.0 |
| 20260503200318 | 76 | 11 | 1.0 | 4.0 | 0.00 | 0.00 | 0.00 | 31 | 1009.1 |
| 20260503195824 | 75 | 307 | 2.0 | 5.0 | 0.00 | 0.00 | 0.00 | 33 | 1009.1 |
| 20260503195332 | 75 | 278 | 2.0 | 5.0 | 0.00 | 0.00 | 0.00 | 31 | 1009.1 |
| 20260503194819 | 74 | 57 | 0.0 | 4.0 | 0.00 | 0.00 | 0.00 | 34 | 1009.1 |
| 20260503194328 | 75 | 113 | 2.0 | 5.0 | 0.00 | 0.00 | 0.00 | 33 | 1009.1 |
| 20260503193813 | 74 | 124 | 1.0 | 5.0 | 0.00 | 0.00 | 0.00 | 31 | 1009.4 |
| 20260503193322 | 75 | 181 | 2.0 | 5.0 | 0.00 | 0.00 | 0.00 | 32 | 1009.4 |
| 20260503192829 | 74 | 333 | 1.0 | 8.0 | 0.00 | 0.00 | 0.00 | 30 | 1009.5 |
| 20260503192317 | 74 | 193 | 4.0 | 8.0 | 0.00 | 0.00 | 0.00 | 33 | 1009.6 |
| 20260503191824 | 75 | 67 | 2.0 | 4.0 | 0.00 | 0.00 | 0.00 | 31 | 1009.5 |
| 20260503191334 | 76 | 342 | 2.0 | 3.0 | 0.00 | 0.00 | 0.00 | 29 | 1009.6 |
| 20260503190820 | 76 | 264 | 0.0 | 5.0 | 0.00 | 0.00 | 0.00 | 30 | 1009.6 |
| 20260503190328 | 76 | 14 | 2.0 | 6.0 | 0.00 | 0.00 | 0.00 | 30 | 1009.8 |
| 20260503185815 | 76 | 36 | 2.0 | 6.0 | 0.00 | 0.00 | 0.00 | 30 | 1009.8 |
| 20260503185324 | 76 | 25 | 2.0 | 7.0 | 0.00 | 0.00 | 0.00 | 33 | 1009.8 |
| 20260503184810 | 76 | 30 | 2.0 | 7.0 | 0.00 | 0.00 | 0.00 | 34 | 1009.9 |
| 20260503184319 | 76 | 234 | 1.0 | 5.0 | 0.00 | 0.00 | 0.00 | 33 | 1010.0 |
| 20260503183826 | 75 | 40 | 1.0 | 4.0 | 0.00 | 0.00 | 0.00 | 33 | 1010.1 |
| 20260503183315 | 75 | 350 | 1.0 | 4.0 | 0.00 | 0.00 | 0.00 | 33 | 1010.1 |
| 20260503182822 | 75 | 335 | 0.0 | 4.0 | 0.00 | 0.00 | 0.00 | 35 | 1010.1 |
| 20260503182330 | 75 | 329 | 1.0 | 4.0 | 0.00 | 0.00 | 0.00 | 34 | 1010.0 |
| 20260503181816 | 74 | 26 | 0.0 | 5.0 | 0.00 | 0.00 | 0.00 | 35 | 1010.2 |
| 20260503181325 | 74 | 30 | 2.0 | 8.0 | 0.00 | 0.00 | 0.00 | 32 | 1010.4 |
| 20260503180812 | 74 | 360 | 3.0 | 7.0 | 0.00 | 0.00 | 0.00 | 34 | 1010.4 |
| 20260503180318 | 73 | 35 | 2.0 | 6.0 | 0.00 | 0.00 | 0.00 | 32 | 1010.5 |
| 20260503175825 | 73 | 49 | 2.0 | 9.0 | 0.00 | 0.00 | 0.00 | 35 | 1010.6 |
| 20260503175312 | 73 | 42 | 2.0 | 9.0 | 0.00 | 0.00 | 0.00 | 32 | 1010.7 |
| 20260503174818 | 74 | 327 | 3.0 | 5.0 | 0.00 | 0.00 | 0.00 | 32 | 1010.6 |
| 20260503174326 | 74 | 57 | 1.0 | 4.0 | 0.00 | 0.00 | 0.00 | 36 | 1010.8 |
| 20260503173811 | 74 | 39 | 1.0 | 5.0 | 0.00 | 0.00 | 0.00 | 34 | 1010.9 |
| 20260503173321 | 73 | 333 | 2.0 | 5.0 | 0.00 | 0.00 | 0.00 | 33 | 1011.0 |
| 20260503172827 | 73 | 339 | 3.0 | 4.0 | 0.00 | 0.00 | 0.00 | 34 | 1011.0 |
| 20260503172317 | 73 | 313 | 2.0 | 5.0 | 0.00 | 0.00 | 0.00 | 36 | 1011.0 |
| 20260503171823 | 72 | 348 | 3.0 | 5.0 | 0.00 | 0.00 | 0.00 | 36 | 1011.0 |
| 20260503171313 | 72 | 52 | 2.0 | 4.0 | 0.00 | 0.00 | 0.00 | 36 | 1011.1 |
| 20260503170818 | 72 | 277 | 1.0 | 4.0 | 0.00 | 0.00 | 0.00 | 39 | 1011.1 |
| 20260503170324 | 72 | 265 | 0.0 | 4.0 | 0.00 | 0.00 | 0.00 | 38 | 1011.1 |